<?xml version="1.0" encoding="UTF-8" standalone="no" ?>
<gpx xmlns="http://www.topografix.com/GPX/1/1" xmlns:xsi="http://www.w3.org/2001/XMLSchema-instance" xsi:schemaLocation="http://www.topografix.com/GPX/1/1 http://www.topografix.com/GPX/1/1/gpx.xsd" version="1.1" creator="VisuGPX - https://www.visugpx.com">
  <metadata>
    <name>ACTIVE LOG142705</name>
  </metadata>
  <trk>
    <name><![CDATA[ACTIVE LOG142705]]></name>
    <trkseg>
      <trkpt lat="47.29723" lon="-1.38685">
        <ele>76.196</ele>
        <time>2009-06-05T12:27:05Z</time>
      </trkpt>
      <trkpt lat="47.29758" lon="-1.38664">
        <ele>46.75</ele>
        <time>2009-06-05T12:30:29Z</time>
      </trkpt>
      <trkpt lat="47.29778" lon="-1.38772">
        <ele>50.514</ele>
        <time>2009-06-05T12:30:56Z</time>
      </trkpt>
      <trkpt lat="47.29831" lon="-1.38842">
        <ele>52.247</ele>
        <time>2009-06-05T12:31:30Z</time>
      </trkpt>
      <trkpt lat="47.29926" lon="-1.38817">
        <ele>58.993</ele>
        <time>2009-06-05T12:32:08Z</time>
      </trkpt>
      <trkpt lat="47.30004" lon="-1.38743">
        <ele>58.026</ele>
        <time>2009-06-05T12:32:39Z</time>
      </trkpt>
      <trkpt lat="47.30067" lon="-1.38699">
        <ele>64.854</ele>
        <time>2009-06-05T12:33:18Z</time>
      </trkpt>
      <trkpt lat="47.30001" lon="-1.38702">
        <ele>60.173</ele>
        <time>2009-06-05T12:33:46Z</time>
      </trkpt>
      <trkpt lat="47.30063" lon="-1.3862">
        <ele>62.824</ele>
        <time>2009-06-05T12:34:10Z</time>
      </trkpt>
      <trkpt lat="47.30029" lon="-1.38495">
        <ele>61.733</ele>
        <time>2009-06-05T12:34:33Z</time>
      </trkpt>
      <trkpt lat="47.29943" lon="-1.38452">
        <ele>51.33</ele>
        <time>2009-06-05T12:34:47Z</time>
      </trkpt>
      <trkpt lat="47.29859" lon="-1.38501">
        <ele>38.856</ele>
        <time>2009-06-05T12:35:09Z</time>
      </trkpt>
      <trkpt lat="47.29757" lon="-1.38495">
        <ele>24.486</ele>
        <time>2009-06-05T12:35:31Z</time>
      </trkpt>
      <trkpt lat="47.29642" lon="-1.38457">
        <ele>11.073</ele>
        <time>2009-06-05T12:35:47Z</time>
      </trkpt>
      <trkpt lat="47.29536" lon="-1.38479">
        <ele>2.237</ele>
        <time>2009-06-05T12:36:11Z</time>
      </trkpt>
      <trkpt lat="47.29443" lon="-1.38456">
        <ele>-4.966</ele>
        <time>2009-06-05T12:36:38Z</time>
      </trkpt>
      <trkpt lat="47.29392" lon="-1.38571">
        <ele>-1.728</ele>
        <time>2009-06-05T12:37:03Z</time>
      </trkpt>
      <trkpt lat="47.29361" lon="-1.38703">
        <ele>7.821</ele>
        <time>2009-06-05T12:37:24Z</time>
      </trkpt>
      <trkpt lat="47.29344" lon="-1.38661">
        <ele>2.477</ele>
        <time>2009-06-05T12:37:50Z</time>
      </trkpt>
      <trkpt lat="47.29384" lon="-1.38534">
        <ele>5.085</ele>
        <time>2009-06-05T12:38:13Z</time>
      </trkpt>
      <trkpt lat="47.29415" lon="-1.38401">
        <ele>6.606</ele>
        <time>2009-06-05T12:38:34Z</time>
      </trkpt>
      <trkpt lat="47.29432" lon="-1.38285">
        <ele>6.221</ele>
        <time>2009-06-05T12:38:56Z</time>
      </trkpt>
      <trkpt lat="47.29487" lon="-1.38192">
        <ele>7.119</ele>
        <time>2009-06-05T12:39:22Z</time>
      </trkpt>
      <trkpt lat="47.29521" lon="-1.38063">
        <ele>4.89</ele>
        <time>2009-06-05T12:39:43Z</time>
      </trkpt>
      <trkpt lat="47.29567" lon="-1.37944">
        <ele>6.863</ele>
        <time>2009-06-05T12:40:02Z</time>
      </trkpt>
      <trkpt lat="47.29619" lon="-1.37833">
        <ele>7.776</ele>
        <time>2009-06-05T12:40:20Z</time>
      </trkpt>
      <trkpt lat="47.29675" lon="-1.37723">
        <ele>5.254</ele>
        <time>2009-06-05T12:40:41Z</time>
      </trkpt>
      <trkpt lat="47.29731" lon="-1.3761">
        <ele>3.622</ele>
        <time>2009-06-05T12:41:01Z</time>
      </trkpt>
      <trkpt lat="47.29791" lon="-1.375">
        <ele>5.929</ele>
        <time>2009-06-05T12:41:21Z</time>
      </trkpt>
      <trkpt lat="47.29852" lon="-1.37403">
        <ele>3.037</ele>
        <time>2009-06-05T12:41:41Z</time>
      </trkpt>
      <trkpt lat="47.29917" lon="-1.373">
        <ele>2.629</ele>
        <time>2009-06-05T12:42:02Z</time>
      </trkpt>
      <trkpt lat="47.2998" lon="-1.37203">
        <ele>-0.701</ele>
        <time>2009-06-05T12:42:27Z</time>
      </trkpt>
      <trkpt lat="47.30081" lon="-1.3727">
        <ele>-9.616</ele>
        <time>2009-06-05T12:43:21Z</time>
      </trkpt>
      <trkpt lat="47.30202" lon="-1.37342">
        <ele>43.338</ele>
        <time>2009-06-05T12:44:45Z</time>
      </trkpt>
      <trkpt lat="47.30299" lon="-1.37484">
        <ele>60.228</ele>
        <time>2009-06-05T12:45:58Z</time>
      </trkpt>
      <trkpt lat="47.3031" lon="-1.37582">
        <ele>60.111</ele>
        <time>2009-06-05T12:47:23Z</time>
      </trkpt>
      <trkpt lat="47.30274" lon="-1.37708">
        <ele>67.116</ele>
        <time>2009-06-05T12:49:27Z</time>
      </trkpt>
      <trkpt lat="47.30363" lon="-1.3776">
        <ele>69.957</ele>
        <time>2009-06-05T12:50:20Z</time>
      </trkpt>
      <trkpt lat="47.30444" lon="-1.37818">
        <ele>68.056</ele>
        <time>2009-06-05T12:51:13Z</time>
      </trkpt>
      <trkpt lat="47.30542" lon="-1.37849">
        <ele>72.298</ele>
        <time>2009-06-05T12:52:10Z</time>
      </trkpt>
      <trkpt lat="47.30636" lon="-1.379">
        <ele>75.683</ele>
        <time>2009-06-05T12:52:55Z</time>
      </trkpt>
      <trkpt lat="47.30669" lon="-1.37779">
        <ele>74.962</ele>
        <time>2009-06-05T12:53:23Z</time>
      </trkpt>
      <trkpt lat="47.30683" lon="-1.37642">
        <ele>74.7</ele>
        <time>2009-06-05T12:53:44Z</time>
      </trkpt>
      <trkpt lat="47.30715" lon="-1.37493">
        <ele>80.749</ele>
        <time>2009-06-05T12:54:18Z</time>
      </trkpt>
      <trkpt lat="47.3078" lon="-1.3754">
        <ele>78.244</ele>
        <time>2009-06-05T12:54:53Z</time>
      </trkpt>
      <trkpt lat="47.30899" lon="-1.37647">
        <ele>81.012</ele>
        <time>2009-06-05T12:55:34Z</time>
      </trkpt>
      <trkpt lat="47.30966" lon="-1.37703">
        <ele>80.743</ele>
        <time>2009-06-05T12:56:11Z</time>
      </trkpt>
      <trkpt lat="47.31003" lon="-1.3757">
        <ele>77.624</ele>
        <time>2009-06-05T12:56:45Z</time>
      </trkpt>
      <trkpt lat="47.31065" lon="-1.37487">
        <ele>66.599</ele>
        <time>2009-06-05T12:57:31Z</time>
      </trkpt>
      <trkpt lat="47.30999" lon="-1.37585">
        <ele>77.061</ele>
        <time>2009-06-05T12:57:56Z</time>
      </trkpt>
      <trkpt lat="47.30963" lon="-1.37715">
        <ele>81.573</ele>
        <time>2009-06-05T12:58:20Z</time>
      </trkpt>
      <trkpt lat="47.30934" lon="-1.37845">
        <ele>83.016</ele>
        <time>2009-06-05T12:58:44Z</time>
      </trkpt>
      <trkpt lat="47.30908" lon="-1.37988">
        <ele>82.824</ele>
        <time>2009-06-05T12:59:17Z</time>
      </trkpt>
      <trkpt lat="47.30883" lon="-1.38128">
        <ele>85.463</ele>
        <time>2009-06-05T12:59:42Z</time>
      </trkpt>
      <trkpt lat="47.30896" lon="-1.38264">
        <ele>85.873</ele>
        <time>2009-06-05T13:00:07Z</time>
      </trkpt>
      <trkpt lat="47.30983" lon="-1.38234">
        <ele>88.647</ele>
        <time>2009-06-05T13:00:31Z</time>
      </trkpt>
      <trkpt lat="47.3108" lon="-1.38205">
        <ele>90.217</ele>
        <time>2009-06-05T13:00:56Z</time>
      </trkpt>
      <trkpt lat="47.31175" lon="-1.38168">
        <ele>88.129</ele>
        <time>2009-06-05T13:01:19Z</time>
      </trkpt>
      <trkpt lat="47.31262" lon="-1.38134">
        <ele>79.548</ele>
        <time>2009-06-05T13:01:40Z</time>
      </trkpt>
      <trkpt lat="47.31355" lon="-1.38105">
        <ele>84.379</ele>
        <time>2009-06-05T13:02:03Z</time>
      </trkpt>
      <trkpt lat="47.31388" lon="-1.38183">
        <ele>84.961</ele>
        <time>2009-06-05T13:02:45Z</time>
      </trkpt>
      <trkpt lat="47.31364" lon="-1.38312">
        <ele>79.892</ele>
        <time>2009-06-05T13:03:14Z</time>
      </trkpt>
      <trkpt lat="47.31318" lon="-1.38435">
        <ele>83.32</ele>
        <time>2009-06-05T13:03:51Z</time>
      </trkpt>
      <trkpt lat="47.31281" lon="-1.38564">
        <ele>85.364</ele>
        <time>2009-06-05T13:04:13Z</time>
      </trkpt>
      <trkpt lat="47.31272" lon="-1.3858">
        <ele>87.048</ele>
        <time>2009-06-05T13:05:09Z</time>
      </trkpt>
      <trkpt lat="47.31311" lon="-1.38458">
        <ele>89.526</ele>
        <time>2009-06-05T13:05:34Z</time>
      </trkpt>
      <trkpt lat="47.31355" lon="-1.38333">
        <ele>88.472</ele>
        <time>2009-06-05T13:05:57Z</time>
      </trkpt>
      <trkpt lat="47.31387" lon="-1.38207">
        <ele>83.395</ele>
        <time>2009-06-05T13:06:19Z</time>
      </trkpt>
      <trkpt lat="47.31373" lon="-1.38067">
        <ele>85.867</ele>
        <time>2009-06-05T13:06:41Z</time>
      </trkpt>
      <trkpt lat="47.31383" lon="-1.37932">
        <ele>83.064</ele>
        <time>2009-06-05T13:07:04Z</time>
      </trkpt>
      <trkpt lat="47.31391" lon="-1.37795">
        <ele>79.502</ele>
        <time>2009-06-05T13:07:28Z</time>
      </trkpt>
      <trkpt lat="47.31395" lon="-1.37722">
        <ele>78.932</ele>
        <time>2009-06-05T13:08:08Z</time>
      </trkpt>
      <trkpt lat="47.31406" lon="-1.37587">
        <ele>75.665</ele>
        <time>2009-06-05T13:08:29Z</time>
      </trkpt>
      <trkpt lat="47.31426" lon="-1.37456">
        <ele>74.667</ele>
        <time>2009-06-05T13:08:53Z</time>
      </trkpt>
      <trkpt lat="47.31471" lon="-1.37305">
        <ele>74.315</ele>
        <time>2009-06-05T13:09:16Z</time>
      </trkpt>
      <trkpt lat="47.31484" lon="-1.37159">
        <ele>75.954</ele>
        <time>2009-06-05T13:09:43Z</time>
      </trkpt>
      <trkpt lat="47.31512" lon="-1.37027">
        <ele>77.249</ele>
        <time>2009-06-05T13:10:12Z</time>
      </trkpt>
      <trkpt lat="47.31545" lon="-1.36886">
        <ele>80.053</ele>
        <time>2009-06-05T13:10:40Z</time>
      </trkpt>
      <trkpt lat="47.31577" lon="-1.36733">
        <ele>82.393</ele>
        <time>2009-06-05T13:11:10Z</time>
      </trkpt>
      <trkpt lat="47.31649" lon="-1.36631">
        <ele>79.512</ele>
        <time>2009-06-05T13:11:36Z</time>
      </trkpt>
      <trkpt lat="47.3172" lon="-1.36545">
        <ele>75.732</ele>
        <time>2009-06-05T13:11:56Z</time>
      </trkpt>
      <trkpt lat="47.31705" lon="-1.36425">
        <ele>80.697</ele>
        <time>2009-06-05T13:12:33Z</time>
      </trkpt>
      <trkpt lat="47.31668" lon="-1.36292">
        <ele>79.058</ele>
        <time>2009-06-05T13:12:58Z</time>
      </trkpt>
      <trkpt lat="47.31621" lon="-1.36174">
        <ele>79.874</ele>
        <time>2009-06-05T13:13:22Z</time>
      </trkpt>
      <trkpt lat="47.31557" lon="-1.36075">
        <ele>78.012</ele>
        <time>2009-06-05T13:13:45Z</time>
      </trkpt>
      <trkpt lat="47.31497" lon="-1.35988">
        <ele>76.902</ele>
        <time>2009-06-05T13:14:15Z</time>
      </trkpt>
      <trkpt lat="47.31521" lon="-1.3582">
        <ele>70.638</ele>
        <time>2009-06-05T13:14:43Z</time>
      </trkpt>
      <trkpt lat="47.31573" lon="-1.35673">
        <ele>67.958</ele>
        <time>2009-06-05T13:15:00Z</time>
      </trkpt>
      <trkpt lat="47.31646" lon="-1.35571">
        <ele>64.831</ele>
        <time>2009-06-05T13:15:29Z</time>
      </trkpt>
      <trkpt lat="47.31699" lon="-1.35391">
        <ele>69.507</ele>
        <time>2009-06-05T13:17:16Z</time>
      </trkpt>
      <trkpt lat="47.31714" lon="-1.35228">
        <ele>70.012</ele>
        <time>2009-06-05T13:19:33Z</time>
      </trkpt>
      <trkpt lat="47.31741" lon="-1.35402">
        <ele>44.13</ele>
        <time>2009-06-05T13:20:12Z</time>
      </trkpt>
      <trkpt lat="47.31775" lon="-1.35584">
        <ele>58.738</ele>
        <time>2009-06-05T13:21:10Z</time>
      </trkpt>
      <trkpt lat="47.31862" lon="-1.35746">
        <ele>71.577</ele>
        <time>2009-06-05T13:22:10Z</time>
      </trkpt>
      <trkpt lat="47.31927" lon="-1.35886">
        <ele>70.617</ele>
        <time>2009-06-05T13:22:53Z</time>
      </trkpt>
      <trkpt lat="47.31987" lon="-1.36042">
        <ele>47.975</ele>
        <time>2009-06-05T13:23:39Z</time>
      </trkpt>
      <trkpt lat="47.32085" lon="-1.36041">
        <ele>39.049</ele>
        <time>2009-06-05T13:24:19Z</time>
      </trkpt>
      <trkpt lat="47.32203" lon="-1.36007">
        <ele>38.085</ele>
        <time>2009-06-05T13:24:58Z</time>
      </trkpt>
      <trkpt lat="47.32312" lon="-1.36096">
        <ele>43.738</ele>
        <time>2009-06-05T13:25:37Z</time>
      </trkpt>
      <trkpt lat="47.32428" lon="-1.36077">
        <ele>47.907</ele>
        <time>2009-06-05T13:26:10Z</time>
      </trkpt>
      <trkpt lat="47.32533" lon="-1.36036">
        <ele>42.335</ele>
        <time>2009-06-05T13:26:46Z</time>
      </trkpt>
      <trkpt lat="47.32623" lon="-1.36026">
        <ele>46.229</ele>
        <time>2009-06-05T13:28:47Z</time>
      </trkpt>
      <trkpt lat="47.3271" lon="-1.36184">
        <ele>77.37</ele>
        <time>2009-06-05T13:29:30Z</time>
      </trkpt>
      <trkpt lat="47.32819" lon="-1.36319">
        <ele>88.23</ele>
        <time>2009-06-05T13:30:14Z</time>
      </trkpt>
      <trkpt lat="47.32875" lon="-1.36496">
        <ele>90.695</ele>
        <time>2009-06-05T13:30:56Z</time>
      </trkpt>
      <trkpt lat="47.32953" lon="-1.36628">
        <ele>82.261</ele>
        <time>2009-06-05T13:31:33Z</time>
      </trkpt>
      <trkpt lat="47.33059" lon="-1.36761">
        <ele>99.823</ele>
        <time>2009-06-05T13:32:09Z</time>
      </trkpt>
      <trkpt lat="47.33168" lon="-1.36884">
        <ele>93.569</ele>
        <time>2009-06-05T13:33:00Z</time>
      </trkpt>
      <trkpt lat="47.33247" lon="-1.37002">
        <ele>73.888</ele>
        <time>2009-06-05T13:34:45Z</time>
      </trkpt>
      <trkpt lat="47.33327" lon="-1.37143">
        <ele>72.354</ele>
        <time>2009-06-05T13:36:02Z</time>
      </trkpt>
      <trkpt lat="47.33366" lon="-1.37298">
        <ele>80.749</ele>
        <time>2009-06-05T13:36:45Z</time>
      </trkpt>
      <trkpt lat="47.33439" lon="-1.37473">
        <ele>71.282</ele>
        <time>2009-06-05T13:38:13Z</time>
      </trkpt>
      <trkpt lat="47.33384" lon="-1.37582">
        <ele>73.607</ele>
        <time>2009-06-05T13:47:06Z</time>
      </trkpt>
      <trkpt lat="47.33339" lon="-1.37702">
        <ele>76.757</ele>
        <time>2009-06-05T13:47:43Z</time>
      </trkpt>
      <trkpt lat="47.33308" lon="-1.37813">
        <ele>80.984</ele>
        <time>2009-06-05T13:48:22Z</time>
      </trkpt>
      <trkpt lat="47.33266" lon="-1.37945">
        <ele>82.787</ele>
        <time>2009-06-05T13:49:00Z</time>
      </trkpt>
      <trkpt lat="47.33254" lon="-1.3807">
        <ele>83</ele>
        <time>2009-06-05T13:49:34Z</time>
      </trkpt>
      <trkpt lat="47.33215" lon="-1.38148">
        <ele>83.574</ele>
        <time>2009-06-05T13:50:03Z</time>
      </trkpt>
      <trkpt lat="47.33139" lon="-1.38179">
        <ele>82.902</ele>
        <time>2009-06-05T13:50:25Z</time>
      </trkpt>
      <trkpt lat="47.33195" lon="-1.38291">
        <ele>81.425</ele>
        <time>2009-06-05T13:50:43Z</time>
      </trkpt>
      <trkpt lat="47.33244" lon="-1.38408">
        <ele>79.918</ele>
        <time>2009-06-05T13:51:00Z</time>
      </trkpt>
      <trkpt lat="47.33272" lon="-1.3854">
        <ele>78.92</ele>
        <time>2009-06-05T13:51:17Z</time>
      </trkpt>
      <trkpt lat="47.33291" lon="-1.38677">
        <ele>78.195</ele>
        <time>2009-06-05T13:51:34Z</time>
      </trkpt>
      <trkpt lat="47.33302" lon="-1.38811">
        <ele>76.14</ele>
        <time>2009-06-05T13:51:50Z</time>
      </trkpt>
      <trkpt lat="47.33297" lon="-1.38913">
        <ele>74.664</ele>
        <time>2009-06-05T13:52:11Z</time>
      </trkpt>
      <trkpt lat="47.33201" lon="-1.38893">
        <ele>73.207</ele>
        <time>2009-06-05T13:52:29Z</time>
      </trkpt>
      <trkpt lat="47.3311" lon="-1.38861">
        <ele>73.027</ele>
        <time>2009-06-05T13:52:58Z</time>
      </trkpt>
      <trkpt lat="47.33018" lon="-1.3882">
        <ele>74.968</ele>
        <time>2009-06-05T13:53:30Z</time>
      </trkpt>
      <trkpt lat="47.32921" lon="-1.38819">
        <ele>76.178</ele>
        <time>2009-06-05T13:54:03Z</time>
      </trkpt>
      <trkpt lat="47.32858" lon="-1.38892">
        <ele>78.138</ele>
        <time>2009-06-05T13:54:36Z</time>
      </trkpt>
      <trkpt lat="47.3279" lon="-1.38985">
        <ele>76.745</ele>
        <time>2009-06-05T13:55:00Z</time>
      </trkpt>
      <trkpt lat="47.32721" lon="-1.39077">
        <ele>75.718</ele>
        <time>2009-06-05T13:55:21Z</time>
      </trkpt>
      <trkpt lat="47.32655" lon="-1.39171">
        <ele>74.232</ele>
        <time>2009-06-05T13:55:41Z</time>
      </trkpt>
      <trkpt lat="47.32605" lon="-1.39279">
        <ele>73.934</ele>
        <time>2009-06-05T13:56:04Z</time>
      </trkpt>
      <trkpt lat="47.32524" lon="-1.39338">
        <ele>68.964</ele>
        <time>2009-06-05T13:56:37Z</time>
      </trkpt>
      <trkpt lat="47.32435" lon="-1.39378">
        <ele>69.008</ele>
        <time>2009-06-05T13:56:57Z</time>
      </trkpt>
      <trkpt lat="47.32345" lon="-1.39342">
        <ele>73.867</ele>
        <time>2009-06-05T13:57:24Z</time>
      </trkpt>
      <trkpt lat="47.32259" lon="-1.39289">
        <ele>73.441</ele>
        <time>2009-06-05T13:57:48Z</time>
      </trkpt>
      <trkpt lat="47.32189" lon="-1.392">
        <ele>73.394</ele>
        <time>2009-06-05T13:58:13Z</time>
      </trkpt>
      <trkpt lat="47.32182" lon="-1.39056">
        <ele>73.257</ele>
        <time>2009-06-05T13:58:41Z</time>
      </trkpt>
      <trkpt lat="47.32151" lon="-1.38926">
        <ele>76.522</ele>
        <time>2009-06-05T13:59:06Z</time>
      </trkpt>
      <trkpt lat="47.32106" lon="-1.38801">
        <ele>79.706</ele>
        <time>2009-06-05T13:59:31Z</time>
      </trkpt>
      <trkpt lat="47.32073" lon="-1.38674">
        <ele>80.948</ele>
        <time>2009-06-05T13:59:54Z</time>
      </trkpt>
      <trkpt lat="47.32049" lon="-1.38541">
        <ele>81.962</ele>
        <time>2009-06-05T14:00:16Z</time>
      </trkpt>
      <trkpt lat="47.32032" lon="-1.38411">
        <ele>82.255</ele>
        <time>2009-06-05T14:00:40Z</time>
      </trkpt>
      <trkpt lat="47.3202" lon="-1.38274">
        <ele>82.938</ele>
        <time>2009-06-05T14:01:08Z</time>
      </trkpt>
      <trkpt lat="47.3201" lon="-1.38138">
        <ele>82.891</ele>
        <time>2009-06-05T14:01:28Z</time>
      </trkpt>
      <trkpt lat="47.32017" lon="-1.3801">
        <ele>83.524</ele>
        <time>2009-06-05T14:01:51Z</time>
      </trkpt>
      <trkpt lat="47.32057" lon="-1.37931">
        <ele>82.204</ele>
        <time>2009-06-05T14:02:13Z</time>
      </trkpt>
      <trkpt lat="47.32138" lon="-1.37859">
        <ele>81.069</ele>
        <time>2009-06-05T14:02:27Z</time>
      </trkpt>
      <trkpt lat="47.32223" lon="-1.37795">
        <ele>80.222</ele>
        <time>2009-06-05T14:02:42Z</time>
      </trkpt>
      <trkpt lat="47.32304" lon="-1.37734">
        <ele>79.336</ele>
        <time>2009-06-05T14:02:56Z</time>
      </trkpt>
      <trkpt lat="47.32389" lon="-1.3767">
        <ele>79.399</ele>
        <time>2009-06-05T14:03:09Z</time>
      </trkpt>
      <trkpt lat="47.32474" lon="-1.37605">
        <ele>80.164</ele>
        <time>2009-06-05T14:03:22Z</time>
      </trkpt>
      <trkpt lat="47.32557" lon="-1.37541">
        <ele>79.677</ele>
        <time>2009-06-05T14:03:35Z</time>
      </trkpt>
      <trkpt lat="47.32534" lon="-1.37424">
        <ele>80.446</ele>
        <time>2009-06-05T14:03:50Z</time>
      </trkpt>
      <trkpt lat="47.32487" lon="-1.37302">
        <ele>80.113</ele>
        <time>2009-06-05T14:04:09Z</time>
      </trkpt>
      <trkpt lat="47.32446" lon="-1.3717">
        <ele>77.76</ele>
        <time>2009-06-05T14:04:25Z</time>
      </trkpt>
      <trkpt lat="47.32407" lon="-1.37044">
        <ele>74.794</ele>
        <time>2009-06-05T14:04:41Z</time>
      </trkpt>
      <trkpt lat="47.32359" lon="-1.36933">
        <ele>73.081</ele>
        <time>2009-06-05T14:05:05Z</time>
      </trkpt>
      <trkpt lat="47.3228" lon="-1.36826">
        <ele>64.457</ele>
        <time>2009-06-05T14:05:26Z</time>
      </trkpt>
      <trkpt lat="47.322" lon="-1.36704">
        <ele>62.675</ele>
        <time>2009-06-05T14:06:02Z</time>
      </trkpt>
      <trkpt lat="47.32161" lon="-1.36532">
        <ele>42.103</ele>
        <time>2009-06-05T14:06:50Z</time>
      </trkpt>
      <trkpt lat="47.32105" lon="-1.36369">
        <ele>35.715</ele>
        <time>2009-06-05T14:07:06Z</time>
      </trkpt>
      <trkpt lat="47.32039" lon="-1.36152">
        <ele>31.514</ele>
        <time>2009-06-05T14:07:52Z</time>
      </trkpt>
      <trkpt lat="47.31966" lon="-1.35944">
        <ele>29.724</ele>
        <time>2009-06-05T14:09:12Z</time>
      </trkpt>
      <trkpt lat="47.31888" lon="-1.35768">
        <ele>33.248</ele>
        <time>2009-06-05T14:09:46Z</time>
      </trkpt>
      <trkpt lat="47.31793" lon="-1.35546">
        <ele>31.296</ele>
        <time>2009-06-05T14:10:54Z</time>
      </trkpt>
      <trkpt lat="47.31786" lon="-1.35368">
        <ele>28.825</ele>
        <time>2009-06-05T14:11:38Z</time>
      </trkpt>
      <trkpt lat="47.31696" lon="-1.35198">
        <ele>15.706</ele>
        <time>2009-06-05T14:15:13Z</time>
      </trkpt>
      <trkpt lat="47.3178" lon="-1.35086">
        <ele>18.552</ele>
        <time>2009-06-05T14:16:10Z</time>
      </trkpt>
      <trkpt lat="47.31863" lon="-1.3497">
        <ele>42.551</ele>
        <time>2009-06-05T14:17:53Z</time>
      </trkpt>
      <trkpt lat="47.31838" lon="-1.34904">
        <ele>56.316</ele>
        <time>2009-06-05T14:19:31Z</time>
      </trkpt>
      <trkpt lat="47.31747" lon="-1.34939">
        <ele>56.509</ele>
        <time>2009-06-05T14:20:12Z</time>
      </trkpt>
      <trkpt lat="47.31653" lon="-1.34983">
        <ele>50.438</ele>
        <time>2009-06-05T14:20:34Z</time>
      </trkpt>
      <trkpt lat="47.31566" lon="-1.35023">
        <ele>42.958</ele>
        <time>2009-06-05T14:20:46Z</time>
      </trkpt>
      <trkpt lat="47.31477" lon="-1.35056">
        <ele>31.843</ele>
        <time>2009-06-05T14:20:56Z</time>
      </trkpt>
      <trkpt lat="47.31412" lon="-1.34983">
        <ele>20.302</ele>
        <time>2009-06-05T14:21:09Z</time>
      </trkpt>
      <trkpt lat="47.31351" lon="-1.35089">
        <ele>11.787</ele>
        <time>2009-06-05T14:21:24Z</time>
      </trkpt>
      <trkpt lat="47.31281" lon="-1.35136">
        <ele>5.655</ele>
        <time>2009-06-05T14:21:41Z</time>
      </trkpt>
      <trkpt lat="47.31219" lon="-1.35236">
        <ele>9.163</ele>
        <time>2009-06-05T14:21:56Z</time>
      </trkpt>
      <trkpt lat="47.31156" lon="-1.35336">
        <ele>9.893</ele>
        <time>2009-06-05T14:22:08Z</time>
      </trkpt>
      <trkpt lat="47.31091" lon="-1.35438">
        <ele>7.607</ele>
        <time>2009-06-05T14:22:19Z</time>
      </trkpt>
      <trkpt lat="47.31014" lon="-1.3553">
        <ele>7.392</ele>
        <time>2009-06-05T14:22:31Z</time>
      </trkpt>
      <trkpt lat="47.30941" lon="-1.35616">
        <ele>7.391</ele>
        <time>2009-06-05T14:22:42Z</time>
      </trkpt>
      <trkpt lat="47.30866" lon="-1.35706">
        <ele>8.052</ele>
        <time>2009-06-05T14:22:55Z</time>
      </trkpt>
      <trkpt lat="47.30788" lon="-1.35797">
        <ele>7.245</ele>
        <time>2009-06-05T14:23:11Z</time>
      </trkpt>
      <trkpt lat="47.30711" lon="-1.35882">
        <ele>5.587</ele>
        <time>2009-06-05T14:23:28Z</time>
      </trkpt>
      <trkpt lat="47.30633" lon="-1.35973">
        <ele>6.792</ele>
        <time>2009-06-05T14:23:45Z</time>
      </trkpt>
      <trkpt lat="47.30557" lon="-1.36073">
        <ele>7.202</ele>
        <time>2009-06-05T14:24:02Z</time>
      </trkpt>
      <trkpt lat="47.30494" lon="-1.36181">
        <ele>7.11</ele>
        <time>2009-06-05T14:24:16Z</time>
      </trkpt>
      <trkpt lat="47.30437" lon="-1.36295">
        <ele>6.425</ele>
        <time>2009-06-05T14:24:30Z</time>
      </trkpt>
      <trkpt lat="47.30382" lon="-1.36408">
        <ele>5.72</ele>
        <time>2009-06-05T14:24:43Z</time>
      </trkpt>
      <trkpt lat="47.30326" lon="-1.36517">
        <ele>2.581</ele>
        <time>2009-06-05T14:24:56Z</time>
      </trkpt>
      <trkpt lat="47.3027" lon="-1.36634">
        <ele>3.358</ele>
        <time>2009-06-05T14:25:10Z</time>
      </trkpt>
      <trkpt lat="47.30213" lon="-1.36748">
        <ele>5.294</ele>
        <time>2009-06-05T14:25:23Z</time>
      </trkpt>
      <trkpt lat="47.30157" lon="-1.36866">
        <ele>5.495</ele>
        <time>2009-06-05T14:25:38Z</time>
      </trkpt>
      <trkpt lat="47.30106" lon="-1.36986">
        <ele>5.228</ele>
        <time>2009-06-05T14:25:55Z</time>
      </trkpt>
      <trkpt lat="47.30042" lon="-1.37099">
        <ele>8.51</ele>
        <time>2009-06-05T14:26:11Z</time>
      </trkpt>
      <trkpt lat="47.29977" lon="-1.37204">
        <ele>5.475</ele>
        <time>2009-06-05T14:26:26Z</time>
      </trkpt>
      <trkpt lat="47.29911" lon="-1.37306">
        <ele>4.818</ele>
        <time>2009-06-05T14:26:40Z</time>
      </trkpt>
      <trkpt lat="47.29848" lon="-1.37403">
        <ele>6.846</ele>
        <time>2009-06-05T14:26:53Z</time>
      </trkpt>
      <trkpt lat="47.29784" lon="-1.37507">
        <ele>3.378</ele>
        <time>2009-06-05T14:27:07Z</time>
      </trkpt>
      <trkpt lat="47.29724" lon="-1.37627">
        <ele>1.797</ele>
        <time>2009-06-05T14:27:23Z</time>
      </trkpt>
      <trkpt lat="47.29666" lon="-1.37742">
        <ele>3.285</ele>
        <time>2009-06-05T14:27:39Z</time>
      </trkpt>
      <trkpt lat="47.29604" lon="-1.37857">
        <ele>3.972</ele>
        <time>2009-06-05T14:27:54Z</time>
      </trkpt>
      <trkpt lat="47.29556" lon="-1.37966">
        <ele>6.758</ele>
        <time>2009-06-05T14:28:08Z</time>
      </trkpt>
      <trkpt lat="47.29514" lon="-1.38082">
        <ele>7.136</ele>
        <time>2009-06-05T14:28:22Z</time>
      </trkpt>
      <trkpt lat="47.29478" lon="-1.38208">
        <ele>6.12</ele>
        <time>2009-06-05T14:28:38Z</time>
      </trkpt>
      <trkpt lat="47.29426" lon="-1.38287">
        <ele>5.76</ele>
        <time>2009-06-05T14:29:10Z</time>
      </trkpt>
      <trkpt lat="47.29408" lon="-1.38415">
        <ele>4.456</ele>
        <time>2009-06-05T14:29:25Z</time>
      </trkpt>
      <trkpt lat="47.29378" lon="-1.38541">
        <ele>3.74</ele>
        <time>2009-06-05T14:29:43Z</time>
      </trkpt>
      <trkpt lat="47.29336" lon="-1.38668">
        <ele>3.52</ele>
        <time>2009-06-05T14:29:57Z</time>
      </trkpt>
      <trkpt lat="47.29373" lon="-1.3876">
        <ele>3.865</ele>
        <time>2009-06-05T14:30:21Z</time>
      </trkpt>
      <trkpt lat="47.29438" lon="-1.38858">
        <ele>4.065</ele>
        <time>2009-06-05T14:30:44Z</time>
      </trkpt>
      <trkpt lat="47.29439" lon="-1.38995">
        <ele>4.573</ele>
        <time>2009-06-05T14:31:02Z</time>
      </trkpt>
      <trkpt lat="47.29417" lon="-1.39131">
        <ele>5.632</ele>
        <time>2009-06-05T14:31:22Z</time>
      </trkpt>
      <trkpt lat="47.29399" lon="-1.39271">
        <ele>11.134</ele>
        <time>2009-06-05T14:31:41Z</time>
      </trkpt>
      <trkpt lat="47.29394" lon="-1.39411">
        <ele>15.63</ele>
        <time>2009-06-05T14:32:01Z</time>
      </trkpt>
      <trkpt lat="47.29464" lon="-1.39484">
        <ele>20.774</ele>
        <time>2009-06-05T14:32:22Z</time>
      </trkpt>
      <trkpt lat="47.2953" lon="-1.39393">
        <ele>27.864</ele>
        <time>2009-06-05T14:32:49Z</time>
      </trkpt>
      <trkpt lat="47.29603" lon="-1.39404">
        <ele>29.93</ele>
        <time>2009-06-05T14:34:01Z</time>
      </trkpt>
      <trkpt lat="47.29698" lon="-1.39428">
        <ele>44.181</ele>
        <time>2009-06-05T14:34:29Z</time>
      </trkpt>
      <trkpt lat="47.29742" lon="-1.39335">
        <ele>39.954</ele>
        <time>2009-06-05T14:45:03Z</time>
      </trkpt>
      <trkpt lat="47.29712" lon="-1.39238">
        <ele>34.59</ele>
        <time>2009-06-05T14:46:17Z</time>
      </trkpt>
      <trkpt lat="47.29705" lon="-1.39147">
        <ele>37.275</ele>
        <time>2009-06-05T14:47:44Z</time>
      </trkpt>
      <trkpt lat="47.29804" lon="-1.39129">
        <ele>44.845</ele>
        <time>2009-06-05T14:48:14Z</time>
      </trkpt>
      <trkpt lat="47.29825" lon="-1.39058">
        <ele>37.089</ele>
        <time>2009-06-05T14:50:34Z</time>
      </trkpt>
      <trkpt lat="47.29859" lon="-1.38922">
        <ele>47.535</ele>
        <time>2009-06-05T14:52:12Z</time>
      </trkpt>
      <trkpt lat="47.29921" lon="-1.38825">
        <ele>58.563</ele>
        <time>2009-06-05T14:53:38Z</time>
      </trkpt>
      <trkpt lat="47.29862" lon="-1.38842">
        <ele>49.376</ele>
        <time>2009-06-05T14:54:47Z</time>
      </trkpt>
      <trkpt lat="47.29769" lon="-1.38826">
        <ele>42.1</ele>
        <time>2009-06-05T14:55:20Z</time>
      </trkpt>
      <trkpt lat="47.29781" lon="-1.38691">
        <ele>44.349</ele>
        <time>2009-06-05T14:56:06Z</time>
      </trkpt>
      <trkpt lat="47.29706" lon="-1.38678">
        <ele>44.121</ele>
        <time>2009-06-05T14:56:47Z</time>
      </trkpt>
    </trkseg>
  </trk>
</gpx>